sensor_id;sensor_type;location;lat;lon;timestamp;temperature;humidity
52187;DHT22;38161;53.020;6.598;2023-07-31T00:00:44;15.90;99.90
52187;DHT22;38161;53.020;6.598;2023-07-31T00:03:12;15.90;99.90
52187;DHT22;38161;53.020;6.598;2023-07-31T00:05:37;15.90;99.90
52187;DHT22;38161;53.020;6.598;2023-07-31T00:08:03;15.80;99.90
52187;DHT22;38161;53.020;6.598;2023-07-31T00:10:50;15.80;99.90
52187;DHT22;38161;53.020;6.598;2023-07-31T00:13:20;15.80;99.90
52187;DHT22;38161;53.020;6.598;2023-07-31T00:15:46;15.80;99.90
52187;DHT22;38161;53.020;6.598;2023-07-31T00:18:13;15.80;99.90
52187;DHT22;38161;53.020;6.598;2023-07-31T00:20:39;15.80;99.90
52187;DHT22;38161;53.020;6.598;2023-07-31T00:23:07;15.70;99.90
52187;DHT22;38161;53.020;6.598;2023-07-31T00:25:32;15.70;99.90
52187;DHT22;38161;53.020;6.598;2023-07-31T00:28:01;15.70;99.90
52187;DHT22;38161;53.020;6.598;2023-07-31T00:30:27;15.60;99.90
52187;DHT22;38161;53.020;6.598;2023-07-31T00:32:53;15.70;99.90
52187;DHT22;38161;53.020;6.598;2023-07-31T00:35:19;15.70;99.90
52187;DHT22;38161;53.020;6.598;2023-07-31T00:37:45;15.70;99.90
52187;DHT22;38161;53.020;6.598;2023-07-31T00:40:11;15.70;99.90
52187;DHT22;38161;53.020;6.598;2023-07-31T00:42:38;15.60;99.90
52187;DHT22;38161;53.020;6.598;2023-07-31T00:45:09;15.60;99.90
52187;DHT22;38161;53.020;6.598;2023-07-31T00:47:35;15.60;99.90
52187;DHT22;38161;53.020;6.598;2023-07-31T00:50:01;15.60;99.90
52187;DHT22;38161;53.020;6.598;2023-07-31T00:52:28;15.50;99.90
52187;DHT22;38161;53.020;6.598;2023-07-31T00:54:55;15.50;99.90
52187;DHT22;38161;53.020;6.598;2023-07-31T00:57:21;15.50;99.90
52187;DHT22;38161;53.020;6.598;2023-07-31T00:59:48;15.50;99.90
52187;DHT22;38161;53.020;6.598;2023-07-31T01:02:15;15.50;99.90
52187;DHT22;38161;53.020;6.598;2023-07-31T01:04:43;15.50;99.90
52187;DHT22;38161;53.020;6.598;2023-07-31T01:07:29;15.40;99.90
52187;DHT22;38161;53.020;6.598;2023-07-31T01:12:39;15.40;99.90
52187;DHT22;38161;53.020;6.598;2023-07-31T01:15:08;15.40;99.90
52187;DHT22;38161;53.020;6.598;2023-07-31T01:17:42;15.40;99.90
52187;DHT22;38161;53.020;6.598;2023-07-31T01:20:38;15.40;99.90
52187;DHT22;38161;53.020;6.598;2023-07-31T01:23:40;15.40;99.90
52187;DHT22;38161;53.020;6.598;2023-07-31T01:26:12;15.40;99.90
52187;DHT22;38161;53.020;6.598;2023-07-31T01:31:19;15.30;99.90
52187;DHT22;38161;53.020;6.598;2023-07-31T01:33:49;15.30;99.90
52187;DHT22;38161;53.020;6.598;2023-07-31T01:36:16;15.30;99.90
52187;DHT22;38161;53.020;6.598;2023-07-31T01:38:42;15.40;99.90
52187;DHT22;38161;53.020;6.598;2023-07-31T01:41:09;15.30;99.90
52187;DHT22;38161;53.020;6.598;2023-07-31T01:43:35;15.40;99.90
52187;DHT22;38161;53.020;6.598;2023-07-31T01:46:01;15.40;99.90
52187;DHT22;38161;53.020;6.598;2023-07-31T01:48:28;15.40;99.90
52187;DHT22;38161;53.020;6.598;2023-07-31T01:50:55;15.40;99.90
52187;DHT22;38161;53.020;6.598;2023-07-31T01:53:22;15.40;99.90
52187;DHT22;38161;53.020;6.598;2023-07-31T01:55:49;15.30;99.90
52187;DHT22;38161;53.020;6.598;2023-07-31T01:58:15;15.40;99.90
52187;DHT22;38161;53.020;6.598;2023-07-31T02:00:41;15.40;99.90
52187;DHT22;38161;53.020;6.598;2023-07-31T02:03:08;15.30;99.90
52187;DHT22;38161;53.020;6.598;2023-07-31T02:05:33;15.30;99.90
52187;DHT22;38161;53.020;6.598;2023-07-31T02:08:00;15.30;99.90
52187;DHT22;38161;53.020;6.598;2023-07-31T02:10:27;15.30;99.90
52187;DHT22;38161;53.020;6.598;2023-07-31T02:12:53;15.40;99.90
52187;DHT22;38161;53.020;6.598;2023-07-31T02:15:20;15.40;99.90
52187;DHT22;38161;53.020;6.598;2023-07-31T02:17:46;15.30;99.90
52187;DHT22;38161;53.020;6.598;2023-07-31T02:20:13;15.30;99.90
52187;DHT22;38161;53.020;6.598;2023-07-31T02:22:39;15.40;99.90
52187;DHT22;38161;53.020;6.598;2023-07-31T02:25:06;15.30;99.90
52187;DHT22;38161;53.020;6.598;2023-07-31T02:27:33;15.30;99.90
52187;DHT22;38161;53.020;6.598;2023-07-31T02:29:59;15.40;99.90
52187;DHT22;38161;53.020;6.598;2023-07-31T02:32:27;15.30;99.90
52187;DHT22;38161;53.020;6.598;2023-07-31T02:34:53;15.40;99.90
52187;DHT22;38161;53.020;6.598;2023-07-31T02:37:18;15.40;99.90
52187;DHT22;38161;53.020;6.598;2023-07-31T02:39:46;15.30;99.90
52187;DHT22;38161;53.020;6.598;2023-07-31T02:42:14;15.30;99.90
52187;DHT22;38161;53.020;6.598;2023-07-31T02:44:40;15.30;99.90
52187;DHT22;38161;53.020;6.598;2023-07-31T02:47:06;15.30;99.90
52187;DHT22;38161;53.020;6.598;2023-07-31T02:49:35;15.30;99.90
52187;DHT22;38161;53.020;6.598;2023-07-31T02:52:01;15.30;99.90
52187;DHT22;38161;53.020;6.598;2023-07-31T02:54:28;15.30;99.90
52187;DHT22;38161;53.020;6.598;2023-07-31T02:56:54;15.30;99.90
52187;DHT22;38161;53.020;6.598;2023-07-31T02:59:20;15.30;99.90
52187;DHT22;38161;53.020;6.598;2023-07-31T03:01:50;15.30;99.90
52187;DHT22;38161;53.020;6.598;2023-07-31T03:04:16;15.40;99.90
52187;DHT22;38161;53.020;6.598;2023-07-31T03:06:42;15.40;99.90
52187;DHT22;38161;53.020;6.598;2023-07-31T03:09:17;15.40;99.90
52187;DHT22;38161;53.020;6.598;2023-07-31T03:11:43;15.40;99.90
52187;DHT22;38161;53.020;6.598;2023-07-31T03:14:09;15.40;99.90
52187;DHT22;38161;53.020;6.598;2023-07-31T03:16:35;15.80;99.90
52187;DHT22;38161;53.020;6.598;2023-07-31T03:19:06;15.40;99.90
52187;DHT22;38161;53.020;6.598;2023-07-31T03:21:34;15.40;99.90
52187;DHT22;38161;53.020;6.598;2023-07-31T03:24:03;15.50;99.90
52187;DHT22;38161;53.020;6.598;2023-07-31T03:26:31;15.50;99.90
52187;DHT22;38161;53.020;6.598;2023-07-31T03:29:03;15.50;99.90
52187;DHT22;38161;53.020;6.598;2023-07-31T03:31:29;15.50;99.90
52187;DHT22;38161;53.020;6.598;2023-07-31T03:33:55;15.50;99.90
52187;DHT22;38161;53.020;6.598;2023-07-31T03:36:21;15.50;99.90
52187;DHT22;38161;53.020;6.598;2023-07-31T03:38:51;15.50;99.90
52187;DHT22;38161;53.020;6.598;2023-07-31T03:41:20;15.50;99.90
52187;DHT22;38161;53.020;6.598;2023-07-31T03:43:49;15.50;99.90
52187;DHT22;38161;53.020;6.598;2023-07-31T03:46:20;15.50;99.90
52187;DHT22;38161;53.020;6.598;2023-07-31T03:48:46;15.60;99.90
52187;DHT22;38161;53.020;6.598;2023-07-31T03:51:15;15.60;99.90
52187;DHT22;38161;53.020;6.598;2023-07-31T03:53:50;15.60;99.90
52187;DHT22;38161;53.020;6.598;2023-07-31T03:56:16;15.60;99.90
52187;DHT22;38161;53.020;6.598;2023-07-31T03:58:43;15.60;99.90
52187;DHT22;38161;53.020;6.598;2023-07-31T04:01:09;15.60;99.90
52187;DHT22;38161;53.020;6.598;2023-07-31T04:03:36;15.60;99.90
52187;DHT22;38161;53.020;6.598;2023-07-31T04:06:03;15.60;99.90
52187;DHT22;38161;53.020;6.598;2023-07-31T04:08:29;15.60;99.90
52187;DHT22;38161;53.020;6.598;2023-07-31T04:10:56;15.60;99.90
52187;DHT22;38161;53.020;6.598;2023-07-31T04:13:22;15.60;99.90
52187;DHT22;38161;53.020;6.598;2023-07-31T04:15:48;15.60;99.90
52187;DHT22;38161;53.020;6.598;2023-07-31T04:18:16;15.70;99.90
52187;DHT22;38161;53.020;6.598;2023-07-31T04:20:42;15.60;99.90
52187;DHT22;38161;53.020;6.598;2023-07-31T04:23:09;15.60;99.90
52187;DHT22;38161;53.020;6.598;2023-07-31T04:25:38;15.70;99.90
52187;DHT22;38161;53.020;6.598;2023-07-31T04:28:05;15.70;99.90
52187;DHT22;38161;53.020;6.598;2023-07-31T04:30:31;15.70;99.90
52187;DHT22;38161;53.020;6.598;2023-07-31T04:32:57;15.60;99.90
52187;DHT22;38161;53.020;6.598;2023-07-31T04:35:23;15.70;99.90
52187;DHT22;38161;53.020;6.598;2023-07-31T04:37:50;15.60;99.90
52187;DHT22;38161;53.020;6.598;2023-07-31T04:40:16;15.60;99.90
52187;DHT22;38161;53.020;6.598;2023-07-31T04:42:42;15.60;99.90
52187;DHT22;38161;53.020;6.598;2023-07-31T04:45:09;15.60;99.90
52187;DHT22;38161;53.020;6.598;2023-07-31T04:47:36;15.60;99.90
52187;DHT22;38161;53.020;6.598;2023-07-31T04:50:02;15.60;99.90
52187;DHT22;38161;53.020;6.598;2023-07-31T04:52:29;15.50;99.90
52187;DHT22;38161;53.020;6.598;2023-07-31T04:54:57;15.60;99.90
52187;DHT22;38161;53.020;6.598;2023-07-31T04:57:23;15.50;99.90
52187;DHT22;38161;53.020;6.598;2023-07-31T04:59:49;15.50;99.90
52187;DHT22;38161;53.020;6.598;2023-07-31T05:02:17;15.50;99.90
52187;DHT22;38161;53.020;6.598;2023-07-31T05:04:44;15.60;99.90
52187;DHT22;38161;53.020;6.598;2023-07-31T05:07:11;15.60;99.90
52187;DHT22;38161;53.020;6.598;2023-07-31T05:09:38;15.60;99.90
52187;DHT22;38161;53.020;6.598;2023-07-31T05:12:06;15.60;99.90
52187;DHT22;38161;53.020;6.598;2023-07-31T05:14:33;15.60;99.90
52187;DHT22;38161;53.020;6.598;2023-07-31T05:16:59;15.60;99.90
52187;DHT22;38161;53.020;6.598;2023-07-31T05:19:26;15.60;99.90
52187;DHT22;38161;53.020;6.598;2023-07-31T05:21:52;15.70;99.90
52187;DHT22;38161;53.020;6.598;2023-07-31T05:24:19;15.70;99.90
52187;DHT22;38161;53.020;6.598;2023-07-31T05:26:45;15.70;99.90
52187;DHT22;38161;53.020;6.598;2023-07-31T05:29:11;15.60;99.90
52187;DHT22;38161;53.020;6.598;2023-07-31T05:31:38;15.70;99.90
52187;DHT22;38161;53.020;6.598;2023-07-31T05:34:05;15.70;99.90
52187;DHT22;38161;53.020;6.598;2023-07-31T05:36:31;15.70;99.90
52187;DHT22;38161;53.020;6.598;2023-07-31T05:38:57;15.80;99.90
52187;DHT22;38161;53.020;6.598;2023-07-31T05:41:24;15.80;99.90
52187;DHT22;38161;53.020;6.598;2023-07-31T05:43:50;15.80;99.90
52187;DHT22;38161;53.020;6.598;2023-07-31T05:46:17;15.90;99.90
52187;DHT22;38161;53.020;6.598;2023-07-31T05:48:46;15.80;99.90
52187;DHT22;38161;53.020;6.598;2023-07-31T05:51:16;15.90;99.90
52187;DHT22;38161;53.020;6.598;2023-07-31T05:53:41;15.90;99.90
52187;DHT22;38161;53.020;6.598;2023-07-31T05:56:08;16.00;99.90
52187;DHT22;38161;53.020;6.598;2023-07-31T05:58:35;16.00;99.90
52187;DHT22;38161;53.020;6.598;2023-07-31T06:01:02;16.00;99.90
52187;DHT22;38161;53.020;6.598;2023-07-31T06:03:29;16.10;99.90
52187;DHT22;38161;53.020;6.598;2023-07-31T06:05:56;16.00;99.90
52187;DHT22;38161;53.020;6.598;2023-07-31T06:08:22;16.10;99.90
52187;DHT22;38161;53.020;6.598;2023-07-31T06:10:48;16.10;99.90
52187;DHT22;38161;53.020;6.598;2023-07-31T06:13:17;16.20;99.90
52187;DHT22;38161;53.020;6.598;2023-07-31T06:15:44;16.20;99.90
52187;DHT22;38161;53.020;6.598;2023-07-31T06:18:11;16.20;99.90
52187;DHT22;38161;53.020;6.598;2023-07-31T06:20:38;16.20;99.90
52187;DHT22;38161;53.020;6.598;2023-07-31T06:23:07;16.30;99.90
52187;DHT22;38161;53.020;6.598;2023-07-31T06:25:33;16.30;99.90
52187;DHT22;38161;53.020;6.598;2023-07-31T06:28:00;16.30;99.90
52187;DHT22;38161;53.020;6.598;2023-07-31T06:30:27;16.30;99.90
52187;DHT22;38161;53.020;6.598;2023-07-31T06:32:54;16.40;99.90
52187;DHT22;38161;53.020;6.598;2023-07-31T06:35:21;16.30;99.90
52187;DHT22;38161;53.020;6.598;2023-07-31T06:37:47;16.40;99.90
52187;DHT22;38161;53.020;6.598;2023-07-31T06:40:17;16.40;99.90
52187;DHT22;38161;53.020;6.598;2023-07-31T06:42:44;16.40;99.90
52187;DHT22;38161;53.020;6.598;2023-07-31T06:48:04;16.40;99.90
52187;DHT22;38161;53.020;6.598;2023-07-31T06:50:31;16.50;99.90
52187;DHT22;38161;53.020;6.598;2023-07-31T06:53:04;16.50;99.90
52187;DHT22;38161;53.020;6.598;2023-07-31T06:55:38;16.50;99.90
52187;DHT22;38161;53.020;6.598;2023-07-31T06:58:07;16.80;99.90
52187;DHT22;38161;53.020;6.598;2023-07-31T07:00:36;16.60;99.90
52187;DHT22;38161;53.020;6.598;2023-07-31T07:03:06;16.60;99.90
52187;DHT22;38161;53.020;6.598;2023-07-31T07:05:36;16.60;99.90
52187;DHT22;38161;53.020;6.598;2023-07-31T07:08:03;16.60;99.90
52187;DHT22;38161;53.020;6.598;2023-07-31T07:10:30;16.60;99.90
52187;DHT22;38161;53.020;6.598;2023-07-31T07:12:56;16.50;99.90
52187;DHT22;38161;53.020;6.598;2023-07-31T07:15:22;16.50;99.90
52187;DHT22;38161;53.020;6.598;2023-07-31T07:17:48;16.50;99.90
52187;DHT22;38161;53.020;6.598;2023-07-31T07:20:15;16.60;99.90
52187;DHT22;38161;53.020;6.598;2023-07-31T07:22:44;16.50;99.90
52187;DHT22;38161;53.020;6.598;2023-07-31T07:25:13;16.60;99.90
52187;DHT22;38161;53.020;6.598;2023-07-31T07:27:42;16.50;99.90
52187;DHT22;38161;53.020;6.598;2023-07-31T07:30:11;16.50;99.90
52187;DHT22;38161;53.020;6.598;2023-07-31T07:32:40;16.50;99.90
52187;DHT22;38161;53.020;6.598;2023-07-31T07:35:11;16.50;99.90
52187;DHT22;38161;53.020;6.598;2023-07-31T07:37:37;16.50;99.90
52187;DHT22;38161;53.020;6.598;2023-07-31T07:40:06;16.50;99.90
52187;DHT22;38161;53.020;6.598;2023-07-31T07:42:33;16.60;99.90
52187;DHT22;38161;53.020;6.598;2023-07-31T07:44:59;16.50;99.90
52187;DHT22;38161;53.020;6.598;2023-07-31T07:47:25;16.60;99.90
52187;DHT22;38161;53.020;6.598;2023-07-31T07:49:52;16.50;99.90
52187;DHT22;38161;53.020;6.598;2023-07-31T07:52:29;16.50;99.90
52187;DHT22;38161;53.020;6.598;2023-07-31T07:55:27;16.50;99.90
52187;DHT22;38161;53.020;6.598;2023-07-31T08:06:26;16.40;99.90
52187;DHT22;38161;53.020;6.598;2023-07-31T08:09:28;16.50;99.90
52187;DHT22;38161;53.020;6.598;2023-07-31T08:11:59;16.50;99.90
52187;DHT22;38161;53.020;6.598;2023-07-31T08:14:28;16.50;99.90
52187;DHT22;38161;53.020;6.598;2023-07-31T08:16:56;16.50;99.90
52187;DHT22;38161;53.020;6.598;2023-07-31T08:19:22;16.50;99.90
52187;DHT22;38161;53.020;6.598;2023-07-31T08:21:48;16.50;99.90
52187;DHT22;38161;53.020;6.598;2023-07-31T08:24:14;16.50;99.90
52187;DHT22;38161;53.020;6.598;2023-07-31T08:26:41;16.50;99.90
52187;DHT22;38161;53.020;6.598;2023-07-31T08:29:07;16.50;99.90
52187;DHT22;38161;53.020;6.598;2023-07-31T08:31:48;16.60;99.90
52187;DHT22;38161;53.020;6.598;2023-07-31T08:34:23;16.60;99.90
52187;DHT22;38161;53.020;6.598;2023-07-31T08:36:49;16.60;99.90
52187;DHT22;38161;53.020;6.598;2023-07-31T08:39:17;16.70;99.90
52187;DHT22;38161;53.020;6.598;2023-07-31T08:41:45;16.60;99.90
52187;DHT22;38161;53.020;6.598;2023-07-31T08:44:12;16.70;99.90
52187;DHT22;38161;53.020;6.598;2023-07-31T08:46:40;16.80;99.90
52187;DHT22;38161;53.020;6.598;2023-07-31T08:49:07;16.80;99.90
52187;DHT22;38161;53.020;6.598;2023-07-31T08:51:35;16.80;99.90
52187;DHT22;38161;53.020;6.598;2023-07-31T08:54:04;16.80;99.90
52187;DHT22;38161;53.020;6.598;2023-07-31T08:56:35;16.90;99.90
52187;DHT22;38161;53.020;6.598;2023-07-31T08:59:02;16.90;99.90
52187;DHT22;38161;53.020;6.598;2023-07-31T09:01:37;17.00;99.90
52187;DHT22;38161;53.020;6.598;2023-07-31T09:04:05;17.00;99.90
52187;DHT22;38161;53.020;6.598;2023-07-31T09:06:37;17.10;99.90
52187;DHT22;38161;53.020;6.598;2023-07-31T09:09:05;17.10;99.90
52187;DHT22;38161;53.020;6.598;2023-07-31T09:11:31;17.10;99.90
52187;DHT22;38161;53.020;6.598;2023-07-31T09:13:58;17.20;99.90
52187;DHT22;38161;53.020;6.598;2023-07-31T09:16:29;17.20;99.90
52187;DHT22;38161;53.020;6.598;2023-07-31T09:18:58;17.30;99.90
52187;DHT22;38161;53.020;6.598;2023-07-31T09:21:28;17.30;99.90
52187;DHT22;38161;53.020;6.598;2023-07-31T09:23:55;17.40;99.90
52187;DHT22;38161;53.020;6.598;2023-07-31T09:26:35;17.40;99.90
52187;DHT22;38161;53.020;6.598;2023-07-31T09:29:05;17.40;99.90
52187;DHT22;38161;53.020;6.598;2023-07-31T09:31:41;17.40;99.90
52187;DHT22;38161;53.020;6.598;2023-07-31T09:34:10;17.40;99.90
52187;DHT22;38161;53.020;6.598;2023-07-31T09:36:48;17.40;99.90
52187;DHT22;38161;53.020;6.598;2023-07-31T09:39:18;17.50;99.90
52187;DHT22;38161;53.020;6.598;2023-07-31T09:41:56;17.50;99.90
52187;DHT22;38161;53.020;6.598;2023-07-31T09:44:38;17.50;99.90
52187;DHT22;38161;53.020;6.598;2023-07-31T09:47:05;17.50;99.90
52187;DHT22;38161;53.020;6.598;2023-07-31T09:49:31;17.50;99.90
52187;DHT22;38161;53.020;6.598;2023-07-31T09:51:59;17.50;99.90
52187;DHT22;38161;53.020;6.598;2023-07-31T09:54:27;17.60;99.90
52187;DHT22;38161;53.020;6.598;2023-07-31T09:56:55;17.60;99.90
52187;DHT22;38161;53.020;6.598;2023-07-31T09:59:23;17.60;99.90
52187;DHT22;38161;53.020;6.598;2023-07-31T10:01:51;17.60;99.90
52187;DHT22;38161;53.020;6.598;2023-07-31T10:04:21;17.60;99.90
52187;DHT22;38161;53.020;6.598;2023-07-31T10:06:53;17.60;99.90
52187;DHT22;38161;53.020;6.598;2023-07-31T10:09:26;17.70;99.90
52187;DHT22;38161;53.020;6.598;2023-07-31T10:12:03;17.70;99.90
52187;DHT22;38161;53.020;6.598;2023-07-31T10:14:32;17.70;99.90
52187;DHT22;38161;53.020;6.598;2023-07-31T10:17:03;17.70;99.90
52187;DHT22;38161;53.020;6.598;2023-07-31T10:19:31;17.70;99.90
52187;DHT22;38161;53.020;6.598;2023-07-31T10:21:59;17.80;99.90
52187;DHT22;38161;53.020;6.598;2023-07-31T10:24:25;17.80;99.90
52187;DHT22;38161;53.020;6.598;2023-07-31T10:26:53;17.90;99.90
52187;DHT22;38161;53.020;6.598;2023-07-31T10:29:25;17.90;99.90
52187;DHT22;38161;53.020;6.598;2023-07-31T10:31:53;18.00;99.90
52187;DHT22;38161;53.020;6.598;2023-07-31T10:34:19;18.00;99.90
52187;DHT22;38161;53.020;6.598;2023-07-31T10:36:46;18.10;99.90
52187;DHT22;38161;53.020;6.598;2023-07-31T10:39:37;18.20;99.90
52187;DHT22;38161;53.020;6.598;2023-07-31T10:42:12;18.20;99.90
52187;DHT22;38161;53.020;6.598;2023-07-31T10:44:44;18.30;99.90
52187;DHT22;38161;53.020;6.598;2023-07-31T10:47:14;18.30;99.90
52187;DHT22;38161;53.020;6.598;2023-07-31T10:49:45;18.50;99.90
52187;DHT22;38161;53.020;6.598;2023-07-31T10:52:12;18.60;99.90
52187;DHT22;38161;53.020;6.598;2023-07-31T10:54:39;18.70;99.90
52187;DHT22;38161;53.020;6.598;2023-07-31T10:57:25;18.80;99.90
52187;DHT22;38161;53.020;6.598;2023-07-31T11:00:23;18.80;99.90
52187;DHT22;38161;53.020;6.598;2023-07-31T11:03:06;18.80;99.90
52187;DHT22;38161;53.020;6.598;2023-07-31T11:08:35;18.80;99.90
52187;DHT22;38161;53.020;6.598;2023-07-31T11:13:30;19.00;99.90
52187;DHT22;38161;53.020;6.598;2023-07-31T11:16:10;19.10;99.90
52187;DHT22;38161;53.020;6.598;2023-07-31T11:18:41;19.20;99.90
52187;DHT22;38161;53.020;6.598;2023-07-31T11:21:19;19.30;99.90
52187;DHT22;38161;53.020;6.598;2023-07-31T11:23:50;19.30;99.90
52187;DHT22;38161;53.020;6.598;2023-07-31T11:26:18;19.20;99.90
52187;DHT22;38161;53.020;6.598;2023-07-31T11:28:49;19.20;99.90
52187;DHT22;38161;53.020;6.598;2023-07-31T11:31:16;19.20;99.90
52187;DHT22;38161;53.020;6.598;2023-07-31T11:33:43;19.20;99.90
52187;DHT22;38161;53.020;6.598;2023-07-31T11:36:20;19.20;99.90
52187;DHT22;38161;53.020;6.598;2023-07-31T11:39:04;19.10;99.90
52187;DHT22;38161;53.020;6.598;2023-07-31T11:41:34;19.10;99.90
52187;DHT22;38161;53.020;6.598;2023-07-31T11:44:03;19.00;99.90
52187;DHT22;38161;53.020;6.598;2023-07-31T11:46:33;19.00;99.90
52187;DHT22;38161;53.020;6.598;2023-07-31T11:49:44;19.00;99.90
52187;DHT22;38161;53.020;6.598;2023-07-31T11:52:11;18.90;99.90
52187;DHT22;38161;53.020;6.598;2023-07-31T11:54:42;18.90;99.90
52187;DHT22;38161;53.020;6.598;2023-07-31T11:57:14;18.90;99.90
52187;DHT22;38161;53.020;6.598;2023-07-31T11:59:44;19.00;99.90
52187;DHT22;38161;53.020;6.598;2023-07-31T12:02:14;19.00;99.90
52187;DHT22;38161;53.020;6.598;2023-07-31T12:04:43;19.10;99.90
52187;DHT22;38161;53.020;6.598;2023-07-31T12:07:10;19.20;99.90
52187;DHT22;38161;53.020;6.598;2023-07-31T12:09:59;19.20;99.90
52187;DHT22;38161;53.020;6.598;2023-07-31T12:12:26;19.20;99.90
52187;DHT22;38161;53.020;6.598;2023-07-31T12:14:55;19.30;99.90
52187;DHT22;38161;53.020;6.598;2023-07-31T12:17:23;19.30;99.90
52187;DHT22;38161;53.020;6.598;2023-07-31T12:19:54;19.30;99.90
52187;DHT22;38161;53.020;6.598;2023-07-31T12:22:27;19.20;99.90
52187;DHT22;38161;53.020;6.598;2023-07-31T12:25:04;19.10;99.90
52187;DHT22;38161;53.020;6.598;2023-07-31T12:27:33;19.00;99.90
52187;DHT22;38161;53.020;6.598;2023-07-31T12:30:00;19.00;99.90
52187;DHT22;38161;53.020;6.598;2023-07-31T12:32:31;18.90;99.90
52187;DHT22;38161;53.020;6.598;2023-07-31T12:35:01;18.90;99.90
52187;DHT22;38161;53.020;6.598;2023-07-31T12:37:39;18.90;99.90
52187;DHT22;38161;53.020;6.598;2023-07-31T12:40:06;18.80;99.90
52187;DHT22;38161;53.020;6.598;2023-07-31T12:42:37;18.80;99.90
52187;DHT22;38161;53.020;6.598;2023-07-31T12:45:04;18.70;99.90
52187;DHT22;38161;53.020;6.598;2023-07-31T12:47:31;18.70;99.90
52187;DHT22;38161;53.020;6.598;2023-07-31T12:49:57;18.70;99.90
52187;DHT22;38161;53.020;6.598;2023-07-31T12:52:23;18.70;99.90
52187;DHT22;38161;53.020;6.598;2023-07-31T12:54:51;18.60;99.90
52187;DHT22;38161;53.020;6.598;2023-07-31T12:57:18;18.60;99.90
52187;DHT22;38161;53.020;6.598;2023-07-31T12:59:46;18.60;99.90
52187;DHT22;38161;53.020;6.598;2023-07-31T13:02:12;18.70;99.90
52187;DHT22;38161;53.020;6.598;2023-07-31T13:04:43;18.70;99.90
52187;DHT22;38161;53.020;6.598;2023-07-31T13:07:10;18.70;99.90
52187;DHT22;38161;53.020;6.598;2023-07-31T13:09:37;18.70;99.90
52187;DHT22;38161;53.020;6.598;2023-07-31T13:12:05;18.80;99.90
52187;DHT22;38161;53.020;6.598;2023-07-31T13:14:33;18.80;99.90
52187;DHT22;38161;53.020;6.598;2023-07-31T13:17:05;18.80;99.90
52187;DHT22;38161;53.020;6.598;2023-07-31T13:19:34;18.80;99.90
52187;DHT22;38161;53.020;6.598;2023-07-31T13:22:02;18.80;99.90
52187;DHT22;38161;53.020;6.598;2023-07-31T13:24:30;18.80;99.90
52187;DHT22;38161;53.020;6.598;2023-07-31T13:26:57;18.80;99.90
52187;DHT22;38161;53.020;6.598;2023-07-31T13:29:26;18.80;99.90
52187;DHT22;38161;53.020;6.598;2023-07-31T13:31:56;18.80;99.90
52187;DHT22;38161;53.020;6.598;2023-07-31T13:34:25;18.80;99.90
52187;DHT22;38161;53.020;6.598;2023-07-31T13:36:54;18.90;99.90
52187;DHT22;38161;53.020;6.598;2023-07-31T13:39:26;18.90;99.90
52187;DHT22;38161;53.020;6.598;2023-07-31T13:41:55;18.90;99.90
52187;DHT22;38161;53.020;6.598;2023-07-31T13:44:22;18.90;99.90
52187;DHT22;38161;53.020;6.598;2023-07-31T13:46:52;19.00;99.90
52187;DHT22;38161;53.020;6.598;2023-07-31T13:49:18;19.00;99.90
52187;DHT22;38161;53.020;6.598;2023-07-31T13:51:44;19.00;99.90
52187;DHT22;38161;53.020;6.598;2023-07-31T13:54:10;19.00;99.90
52187;DHT22;38161;53.020;6.598;2023-07-31T13:56:42;19.10;99.90
52187;DHT22;38161;53.020;6.598;2023-07-31T13:59:08;19.10;99.90
52187;DHT22;38161;53.020;6.598;2023-07-31T14:01:34;19.20;99.90
52187;DHT22;38161;53.020;6.598;2023-07-31T14:04:00;19.20;99.90
52187;DHT22;38161;53.020;6.598;2023-07-31T14:06:26;19.20;99.90
52187;DHT22;38161;53.020;6.598;2023-07-31T14:08:52;19.30;99.90
52187;DHT22;38161;53.020;6.598;2023-07-31T14:11:19;19.30;99.90
52187;DHT22;38161;53.020;6.598;2023-07-31T14:13:45;19.30;99.90
52187;DHT22;38161;53.020;6.598;2023-07-31T14:16:10;19.40;99.90
52187;DHT22;38161;53.020;6.598;2023-07-31T14:18:37;19.40;99.90
52187;DHT22;38161;53.020;6.598;2023-07-31T14:21:03;19.40;99.90
52187;DHT22;38161;53.020;6.598;2023-07-31T14:23:29;19.40;99.90
52187;DHT22;38161;53.020;6.598;2023-07-31T14:25:55;19.40;99.90
52187;DHT22;38161;53.020;6.598;2023-07-31T14:28:21;19.40;99.90
52187;DHT22;38161;53.020;6.598;2023-07-31T14:30:47;19.40;99.90
52187;DHT22;38161;53.020;6.598;2023-07-31T14:33:13;19.40;99.90
52187;DHT22;38161;53.020;6.598;2023-07-31T14:35:39;19.40;99.90
52187;DHT22;38161;53.020;6.598;2023-07-31T14:38:05;19.40;99.90
52187;DHT22;38161;53.020;6.598;2023-07-31T14:40:30;19.40;99.90
52187;DHT22;38161;53.020;6.598;2023-07-31T14:42:56;19.40;99.90
52187;DHT22;38161;53.020;6.598;2023-07-31T14:45:22;19.30;99.90
52187;DHT22;38161;53.020;6.598;2023-07-31T14:47:48;19.30;99.90
52187;DHT22;38161;53.020;6.598;2023-07-31T14:50:14;19.30;99.90
52187;DHT22;38161;53.020;6.598;2023-07-31T14:52:40;19.20;99.90
52187;DHT22;38161;53.020;6.598;2023-07-31T14:55:07;19.30;99.90
52187;DHT22;38161;53.020;6.598;2023-07-31T14:57:34;19.30;99.90
52187;DHT22;38161;53.020;6.598;2023-07-31T15:00:00;19.30;99.90
52187;DHT22;38161;53.020;6.598;2023-07-31T15:02:26;19.20;99.90
52187;DHT22;38161;53.020;6.598;2023-07-31T15:04:53;19.20;99.90
52187;DHT22;38161;53.020;6.598;2023-07-31T15:07:19;19.20;99.90
52187;DHT22;38161;53.020;6.598;2023-07-31T15:09:44;19.20;99.90
52187;DHT22;38161;53.020;6.598;2023-07-31T15:12:11;19.20;99.90
52187;DHT22;38161;53.020;6.598;2023-07-31T15:14:37;19.20;99.90
52187;DHT22;38161;53.020;6.598;2023-07-31T15:17:03;19.20;99.90
52187;DHT22;38161;53.020;6.598;2023-07-31T15:19:28;19.10;99.90
52187;DHT22;38161;53.020;6.598;2023-07-31T15:21:55;19.10;99.90
52187;DHT22;38161;53.020;6.598;2023-07-31T15:24:21;19.10;99.90
52187;DHT22;38161;53.020;6.598;2023-07-31T15:26:47;19.10;99.90
52187;DHT22;38161;53.020;6.598;2023-07-31T15:29:13;19.10;99.90
52187;DHT22;38161;53.020;6.598;2023-07-31T15:31:45;19.10;99.90
52187;DHT22;38161;53.020;6.598;2023-07-31T15:34:12;19.10;99.90
52187;DHT22;38161;53.020;6.598;2023-07-31T15:36:39;19.10;99.90
52187;DHT22;38161;53.020;6.598;2023-07-31T15:39:06;19.10;99.90
52187;DHT22;38161;53.020;6.598;2023-07-31T15:41:36;19.10;99.90
52187;DHT22;38161;53.020;6.598;2023-07-31T15:44:02;19.00;99.90
52187;DHT22;38161;53.020;6.598;2023-07-31T15:46:30;19.00;99.90
52187;DHT22;38161;53.020;6.598;2023-07-31T15:48:57;19.00;99.90
52187;DHT22;38161;53.020;6.598;2023-07-31T15:51:24;19.00;99.90
52187;DHT22;38161;53.020;6.598;2023-07-31T15:53:50;19.00;99.90
52187;DHT22;38161;53.020;6.598;2023-07-31T15:56:17;19.00;99.90
52187;DHT22;38161;53.020;6.598;2023-07-31T15:58:43;19.00;99.90
52187;DHT22;38161;53.020;6.598;2023-07-31T16:01:09;19.00;99.90